createdAt,value
2022-12-29T00:00:19.200Z,9.443734
2022-12-29T00:01:19.098Z,9.443746
2022-12-29T00:02:19.123Z,9.443727
2022-12-29T00:03:19.156Z,9.443717
2022-12-29T00:04:19.101Z,9.443707
2022-12-29T00:05:19.060Z,9.443699
2022-12-29T00:06:19.086Z,9.443691
2022-12-29T00:07:19.040Z,9.443721
2022-12-29T00:08:19.067Z,9.443697
2022-12-29T00:09:19.051Z,9.443720
2022-12-29T00:10:19.024Z,9.443724
2022-12-29T00:11:19.021Z,9.443796
2022-12-29T00:12:19.015Z,9.443762
2022-12-29T00:13:19.064Z,9.443817
2022-12-29T00:14:24.223Z,9.443811
2022-12-29T00:15:20.999Z,9.443843
2022-12-29T00:16:19.126Z,9.443772
2022-12-29T00:17:19.014Z,9.443819
2022-12-29T00:18:18.970Z,9.443745
2022-12-29T00:19:18.945Z,9.443779
2022-12-29T00:20:18.990Z,9.443774
2022-12-29T00:21:18.950Z,9.443771
2022-12-29T00:22:18.950Z,9.443968
2022-12-29T00:23:18.962Z,9.443804
2022-12-29T00:24:18.931Z,9.443843
2022-12-29T00:25:18.921Z,9.443812
2022-12-29T00:26:18.901Z,9.443797
2022-12-29T00:27:18.930Z,9.443755
2022-12-29T00:28:18.912Z,9.443782
2022-12-29T00:29:18.910Z,9.443798
2022-12-29T00:30:18.900Z,9.443768
2022-12-29T00:31:18.909Z,9.443838
2022-12-29T00:32:18.875Z,9.443959
2022-12-29T00:33:18.873Z,9.444039
2022-12-29T00:34:18.857Z,9.443784
2022-12-29T00:35:18.860Z,9.443750
2022-12-29T00:36:18.832Z,9.443774
2022-12-29T00:37:18.836Z,9.443740
2022-12-29T00:38:18.843Z,9.443721
2022-12-29T00:39:18.822Z,9.443715
2022-12-29T00:40:18.841Z,9.443690
2022-12-29T00:41:18.833Z,9.443723
2022-12-29T00:42:18.798Z,9.443707
2022-12-29T00:43:18.832Z,9.443698
2022-12-29T00:44:18.800Z,9.443668
2022-12-29T00:45:18.796Z,9.443678
2022-12-29T00:46:20.122Z,9.443746
2022-12-29T00:47:19.782Z,9.443727
2022-12-29T00:48:18.760Z,9.443695
2022-12-29T00:49:18.785Z,9.443688
2022-12-29T00:50:18.742Z,9.443769
2022-12-29T00:51:18.731Z,9.443603
2022-12-29T00:52:18.735Z,9.443621
2022-12-29T00:53:18.741Z,9.443584
2022-12-29T00:54:18.756Z,9.443667
2022-12-29T00:55:18.717Z,9.443738
2022-12-29T00:56:18.713Z,9.443679
2022-12-29T00:57:18.685Z,9.443703
2022-12-29T00:58:18.710Z,9.443763
2022-12-29T00:59:18.695Z,9.443761
2022-12-29T01:00:18.686Z,9.443718
2022-12-29T01:01:18.816Z,9.443670
2022-12-29T01:02:18.804Z,9.443626
2022-12-29T01:03:18.756Z,9.443657
2022-12-29T01:04:18.677Z,9.443688
2022-12-29T01:05:18.648Z,9.443688
2022-12-29T01:06:18.633Z,9.443670
2022-12-29T01:07:18.625Z,9.443620
2022-12-29T01:08:18.630Z,9.443618
2022-12-29T01:09:18.645Z,9.443705
2022-12-29T01:10:18.644Z,9.443727
2022-12-29T01:11:18.613Z,9.443740
2022-12-29T01:12:18.633Z,9.443696
2022-12-29T01:13:18.601Z,9.443658
2022-12-29T01:14:18.614Z,9.443745
2022-12-29T01:15:18.620Z,9.443747
2022-12-29T01:16:18.598Z,9.443697
2022-12-29T01:17:18.614Z,9.443728
2022-12-29T01:18:18.554Z,9.443799
2022-12-29T01:19:18.587Z,9.443766
2022-12-29T01:20:18.604Z,9.443747
2022-12-29T01:21:18.528Z,9.443771
2022-12-29T01:22:18.533Z,9.443698
2022-12-29T01:23:18.516Z,9.443710
2022-12-29T01:24:18.555Z,9.443711
2022-12-29T01:25:18.537Z,9.443699
2022-12-29T01:26:18.518Z,9.443717
2022-12-29T01:27:18.488Z,9.443748
2022-12-29T01:28:22.243Z,9.443765
2022-12-29T01:29:20.483Z,9.443762
2022-12-29T01:30:18.477Z,9.443737
2022-12-29T01:31:18.520Z,9.443734
2022-12-29T01:32:18.479Z,9.443751
2022-12-29T01:33:18.478Z,9.443724
2022-12-29T01:34:18.486Z,9.443702
2022-12-29T01:35:18.438Z,9.443697
2022-12-29T01:36:18.444Z,9.443739
2022-12-29T01:37:18.464Z,9.443709
2022-12-29T01:38:18.438Z,9.443691
2022-12-29T01:39:18.443Z,9.443743
2022-12-29T01:40:18.409Z,9.443757
2022-12-29T01:41:18.433Z,9.443774
2022-12-29T01:42:18.388Z,9.443728
2022-12-29T01:43:18.410Z,9.443774
2022-12-29T01:44:18.380Z,9.443799
2022-12-29T01:45:18.374Z,9.443830
2022-12-29T01:46:18.461Z,9.443773
2022-12-29T01:47:18.395Z,9.443742
2022-12-29T01:48:18.356Z,9.443722
2022-12-29T01:49:18.335Z,9.443698
2022-12-29T01:50:18.574Z,9.443817
2022-12-29T01:51:19.328Z,9.443843
2022-12-29T01:52:18.318Z,9.443831
2022-12-29T01:53:18.429Z,9.443748
2022-12-29T01:54:18.307Z,9.443729
2022-12-29T01:55:18.289Z,9.443678
2022-12-29T01:56:18.286Z,9.443712
2022-12-29T01:57:18.269Z,9.443662
2022-12-29T01:58:18.261Z,9.443691
2022-12-29T01:59:18.262Z,9.443814
2022-12-29T02:00:18.261Z,9.443844
2022-12-29T02:01:18.336Z,9.443811
2022-12-29T02:02:18.465Z,9.443555
2022-12-29T02:03:18.350Z,9.443570
2022-12-29T02:04:18.240Z,9.443739
2022-12-29T02:05:19.325Z,9.443699
2022-12-29T02:06:18.209Z,9.443805
2022-12-29T02:07:18.205Z,9.443628
2022-12-29T02:08:18.269Z,9.443544
2022-12-29T02:09:18.199Z,9.443569
2022-12-29T02:10:18.206Z,9.443604
2022-12-29T02:11:18.191Z,9.443525
2022-12-29T02:12:18.205Z,9.443398
2022-12-29T02:13:18.265Z,9.443426
2022-12-29T02:14:18.169Z,9.443655
2022-12-29T02:15:18.171Z,9.443713
2022-12-29T02:16:18.177Z,9.443643
2022-12-29T02:17:18.270Z,9.443487
2022-12-29T02:18:18.153Z,9.443617
2022-12-29T02:19:18.177Z,9.443761
2022-12-29T02:20:18.163Z,9.443781
2022-12-29T02:21:18.123Z,9.443666
2022-12-29T02:22:18.092Z,9.443716
2022-12-29T02:23:18.167Z,9.443795
2022-12-29T02:24:18.092Z,9.443727
2022-12-29T02:25:18.111Z,9.443751
2022-12-29T02:26:18.175Z,9.443672
2022-12-29T02:27:18.073Z,9.443526
2022-12-29T02:28:18.062Z,9.443568
2022-12-29T02:29:18.153Z,9.443778
2022-12-29T02:30:18.089Z,9.443579
2022-12-29T02:31:18.140Z,9.443687
2022-12-29T02:32:18.066Z,9.443805
2022-12-29T02:33:18.018Z,9.443676
2022-12-29T02:34:18.030Z,9.443607
2022-12-29T02:35:18.013Z,9.443629
2022-12-29T02:36:18.045Z,9.443712
2022-12-29T02:37:17.988Z,9.443693
2022-12-29T02:38:18.002Z,9.443653
2022-12-29T02:39:17.981Z,9.443638
2022-12-29T02:40:17.989Z,9.443701
2022-12-29T02:41:17.961Z,9.443677
2022-12-29T02:42:17.965Z,9.443832
2022-12-29T02:43:18.023Z,9.443639
2022-12-29T02:44:17.969Z,9.443888
2022-12-29T02:45:17.944Z,9.443739
2022-12-29T02:46:17.987Z,9.443776
2022-12-29T02:47:17.925Z,9.443751
2022-12-29T02:48:17.919Z,9.443769
2022-12-29T02:49:17.931Z,9.443916
2022-12-29T02:50:17.916Z,9.443974
2022-12-29T02:51:17.920Z,9.443926
2022-12-29T02:52:17.888Z,9.443727
2022-12-29T02:53:17.904Z,9.443600
2022-12-29T02:54:17.893Z,9.443719
2022-12-29T02:55:17.910Z,9.443913
2022-12-29T02:56:17.903Z,9.443712
2022-12-29T02:57:18.375Z,9.443784
2022-12-29T02:58:17.890Z,9.443818
2022-12-29T02:59:17.870Z,9.443728
2022-12-29T03:00:18.150Z,9.443736
2022-12-29T03:01:17.875Z,9.443657
2022-12-29T03:02:18.173Z,9.443610
2022-12-29T03:03:17.917Z,9.443539
2022-12-29T03:04:17.823Z,9.443602
2022-12-29T03:05:17.862Z,9.443618
2022-12-29T03:06:17.813Z,9.443699
2022-12-29T03:07:17.822Z,9.443712
2022-12-29T03:08:17.826Z,9.443667
2022-12-29T03:09:19.086Z,9.443692
2022-12-29T03:10:17.782Z,9.443723
2022-12-29T03:11:17.779Z,9.443733
2022-12-29T03:12:17.800Z,9.443645
2022-12-29T03:13:17.764Z,9.443651
2022-12-29T03:14:17.749Z,9.443633
2022-12-29T03:15:17.765Z,9.443637
2022-12-29T03:16:17.785Z,9.443688
2022-12-29T03:17:17.769Z,9.443699
2022-12-29T03:18:18.724Z,9.443587
2022-12-29T03:19:17.717Z,9.443643
2022-12-29T03:20:17.733Z,9.443692
2022-12-29T03:21:17.708Z,9.443655
2022-12-29T03:22:17.704Z,9.443669
2022-12-29T03:23:17.721Z,9.443830
2022-12-29T03:24:17.715Z,9.443727
2022-12-29T03:25:17.681Z,9.443751
2022-12-29T03:26:17.681Z,9.443700
2022-12-29T03:27:17.660Z,9.443536
2022-12-29T03:28:17.667Z,9.443628
2022-12-29T03:29:17.645Z,9.443667
2022-12-29T03:30:17.678Z,9.443791
2022-12-29T03:31:17.735Z,9.443638
2022-12-29T03:32:17.656Z,9.443525
2022-12-29T03:33:17.640Z,9.443572
2022-12-29T03:34:17.633Z,9.443632
2022-12-29T03:35:17.624Z,9.443672
2022-12-29T03:36:17.633Z,9.443671
2022-12-29T03:37:17.621Z,9.443674
2022-12-29T03:38:18.496Z,9.443676
2022-12-29T03:39:17.617Z,9.443600
2022-12-29T03:40:17.590Z,9.443610
2022-12-29T03:41:17.575Z,9.443677
2022-12-29T03:42:17.592Z,9.443690
2022-12-29T03:43:17.560Z,9.443729
2022-12-29T03:44:17.580Z,9.443706
2022-12-29T03:45:17.565Z,9.443672
2022-12-29T03:46:17.639Z,9.443711
2022-12-29T03:47:17.556Z,9.443734
2022-12-29T03:48:17.544Z,9.443780
2022-12-29T03:49:17.545Z,9.443745
2022-12-29T03:50:17.541Z,9.443707
2022-12-29T03:51:17.525Z,9.443668
2022-12-29T03:52:17.505Z,9.443663
2022-12-29T03:53:18.296Z,9.443612
2022-12-29T03:54:17.545Z,9.443561
2022-12-29T03:55:17.490Z,9.443605
2022-12-29T03:56:18.148Z,9.443656
2022-12-29T03:57:17.526Z,9.443648
2022-12-29T03:58:17.473Z,9.443580
2022-12-29T03:59:17.473Z,9.443585
2022-12-29T04:00:17.454Z,9.443671
2022-12-29T04:01:18.069Z,9.443601
2022-12-29T04:02:17.768Z,9.443633
2022-12-29T04:03:17.554Z,9.443683
2022-12-29T04:04:17.421Z,9.443734
2022-12-29T04:05:17.412Z,9.443742
2022-12-29T04:06:17.441Z,9.443598
2022-12-29T04:07:17.410Z,9.443595
2022-12-29T04:08:17.421Z,9.443568
2022-12-29T04:09:17.386Z,9.443808
2022-12-29T04:10:17.422Z,9.443750
2022-12-29T04:11:17.429Z,9.443785
2022-12-29T04:12:17.369Z,9.443736
2022-12-29T04:13:17.355Z,9.443765
2022-12-29T04:14:17.363Z,9.443724
2022-12-29T04:15:17.362Z,9.443707
2022-12-29T04:16:17.385Z,9.443672
2022-12-29T04:17:17.374Z,9.443698
2022-12-29T04:18:17.359Z,9.443744
2022-12-29T04:19:17.321Z,9.443677
2022-12-29T04:20:17.350Z,9.443682
2022-12-29T04:21:17.312Z,9.443666
2022-12-29T04:22:17.334Z,9.443690
2022-12-29T04:23:17.289Z,9.443773
2022-12-29T04:24:17.300Z,9.443722
2022-12-29T04:25:17.282Z,9.443727
2022-12-29T04:26:17.287Z,9.443722
2022-12-29T04:27:17.282Z,9.443728
2022-12-29T04:28:18.249Z,9.443698
2022-12-29T04:29:17.252Z,9.443686
2022-12-29T04:30:17.247Z,9.443524
2022-12-29T04:31:17.417Z,9.443542
2022-12-29T04:32:17.228Z,9.443666
2022-12-29T04:33:17.266Z,9.443694
2022-12-29T04:34:17.219Z,9.443552
2022-12-29T04:35:17.217Z,9.443567
2022-12-29T04:36:17.216Z,9.443692
2022-12-29T04:37:17.226Z,9.443847
2022-12-29T04:38:17.208Z,9.443725
2022-12-29T04:39:17.197Z,9.443652
2022-12-29T04:40:17.209Z,9.443665
2022-12-29T04:41:17.243Z,9.443592
2022-12-29T04:42:17.175Z,9.443701
2022-12-29T04:43:17.198Z,9.443768
2022-12-29T04:44:17.149Z,9.443862
2022-12-29T04:45:17.234Z,9.443761
2022-12-29T04:46:17.300Z,9.443786
2022-12-29T04:47:17.159Z,9.443851
2022-12-29T04:48:17.208Z,9.443769
2022-12-29T04:49:17.207Z,9.443523
2022-12-29T04:50:17.117Z,9.443617
2022-12-29T04:51:17.109Z,9.443624
2022-12-29T04:52:17.200Z,9.443679
2022-12-29T04:53:17.093Z,9.443670
2022-12-29T04:54:17.113Z,9.443729
2022-12-29T04:55:17.096Z,9.443663
2022-12-29T04:56:17.057Z,9.443657
2022-12-29T04:57:17.086Z,9.443796
2022-12-29T04:58:22.315Z,9.443766
2022-12-29T04:59:19.070Z,9.443732
2022-12-29T05:00:17.049Z,9.443675
2022-12-29T05:01:17.158Z,9.443718
2022-12-29T05:02:17.253Z,9.443801
2022-12-29T05:03:17.166Z,9.443727
2022-12-29T05:04:17.040Z,9.443869
2022-12-29T05:05:17.074Z,9.443714
2022-12-29T05:06:17.018Z,9.443683
2022-12-29T05:07:17.006Z,9.443592
2022-12-29T05:08:17.057Z,9.443690
2022-12-29T05:09:16.990Z,9.443593
2022-12-29T05:10:17.001Z,9.443675
2022-12-29T05:11:17.026Z,9.443735
2022-12-29T05:12:16.954Z,9.443760
2022-12-29T05:13:16.954Z,9.443715
2022-12-29T05:14:16.961Z,9.443660
2022-12-29T05:15:16.976Z,9.443838
2022-12-29T05:16:16.967Z,9.443748
2022-12-29T05:17:16.939Z,9.443700
2022-12-29T05:18:16.942Z,9.443668
2022-12-29T05:19:16.929Z,9.443686
2022-12-29T05:20:16.913Z,9.443700
2022-12-29T05:21:16.905Z,9.443737
2022-12-29T05:22:16.903Z,9.443728
2022-12-29T05:23:16.915Z,9.443712
2022-12-29T05:24:16.893Z,9.443727
2022-12-29T05:25:16.945Z,9.443741
2022-12-29T05:26:16.902Z,9.443757
2022-12-29T05:27:16.910Z,9.443724
2022-12-29T05:28:16.847Z,9.443708
2022-12-29T05:29:16.847Z,9.443714
2022-12-29T05:30:16.854Z,9.443744
2022-12-29T05:31:16.916Z,9.443749
2022-12-29T05:32:16.816Z,9.443748
2022-12-29T05:33:16.906Z,9.443714
2022-12-29T05:34:16.807Z,9.443721
2022-12-29T05:35:16.815Z,9.443735
2022-12-29T05:36:16.840Z,9.443731
2022-12-29T05:37:16.803Z,9.443761
2022-12-29T05:38:16.816Z,9.443752
2022-12-29T05:39:16.769Z,9.443730
2022-12-29T05:40:16.788Z,9.443714
2022-12-29T05:41:16.873Z,9.443740
2022-12-29T05:42:16.761Z,9.443731
2022-12-29T05:43:16.742Z,9.443653
2022-12-29T05:44:16.766Z,9.443724
2022-12-29T05:45:16.776Z,9.443759
2022-12-29T05:46:16.770Z,9.443704
2022-12-29T05:47:16.720Z,9.443676
2022-12-29T05:48:17.725Z,9.443687
2022-12-29T05:49:16.738Z,9.443716
2022-12-29T05:50:16.704Z,9.443703
2022-12-29T05:51:16.749Z,9.443839
2022-12-29T05:52:16.688Z,9.443739
2022-12-29T05:53:16.679Z,9.443738
2022-12-29T05:54:16.677Z,9.443740
2022-12-29T05:55:16.684Z,9.443669
2022-12-29T05:56:16.674Z,9.443736
2022-12-29T05:57:16.673Z,9.443713
2022-12-29T05:58:16.653Z,9.443733
2022-12-29T05:59:16.670Z,9.443715
2022-12-29T06:00:16.661Z,9.443834
2022-12-29T06:01:16.641Z,9.443748
2022-12-29T06:02:16.740Z,9.443735
2022-12-29T06:03:16.860Z,9.443659
2022-12-29T06:04:16.624Z,9.443641
2022-12-29T06:05:16.647Z,9.443641
2022-12-29T06:06:16.622Z,9.443722
2022-12-29T06:07:16.584Z,9.443753
2022-12-29T06:08:16.594Z,9.443742
2022-12-29T06:09:16.584Z,9.443715
2022-12-29T06:10:16.554Z,9.443433
2022-12-29T06:11:16.587Z,9.443686
2022-12-29T06:12:16.557Z,9.443650
2022-12-29T06:13:16.550Z,9.443700
2022-12-29T06:14:16.559Z,9.443740
2022-12-29T06:15:16.577Z,9.443665
2022-12-29T06:16:16.657Z,9.443860
2022-12-29T06:17:16.536Z,9.443672
2022-12-29T06:18:19.789Z,9.443551
2022-12-29T06:19:17.521Z,9.443629
2022-12-29T06:20:16.499Z,9.443632
2022-12-29T06:21:16.488Z,9.443535
2022-12-29T06:22:16.501Z,9.443383
2022-12-29T06:23:16.494Z,9.443332
2022-12-29T06:24:16.470Z,9.443312
2022-12-29T06:25:16.514Z,9.443599
2022-12-29T06:26:16.463Z,9.443615
2022-12-29T06:27:16.456Z,9.443587
2022-12-29T06:28:16.523Z,9.443625
2022-12-29T06:29:16.443Z,9.443647
2022-12-29T06:30:16.431Z,9.443673
2022-12-29T06:31:16.520Z,9.443735
2022-12-29T06:32:16.557Z,9.443688
2022-12-29T06:33:16.415Z,9.443673
2022-12-29T06:34:16.510Z,9.443613
2022-12-29T06:35:16.407Z,9.443698
2022-12-29T06:36:16.389Z,9.443715
2022-12-29T06:37:16.456Z,9.443688
2022-12-29T06:38:16.399Z,9.443709
2022-12-29T06:39:16.391Z,9.443739
2022-12-29T06:40:16.429Z,9.443757
2022-12-29T06:41:16.357Z,9.443736
2022-12-29T06:42:16.357Z,9.443738
2022-12-29T06:43:16.387Z,9.443713
2022-12-29T06:44:16.376Z,9.443755
2022-12-29T06:45:16.338Z,9.443748
2022-12-29T06:46:16.410Z,9.443723
2022-12-29T06:47:16.320Z,9.443814
2022-12-29T06:48:16.311Z,9.443766
2022-12-29T06:49:16.366Z,9.443695
2022-12-29T06:50:16.299Z,9.443710
2022-12-29T06:51:16.295Z,9.443771
2022-12-29T06:52:16.289Z,9.443757
2022-12-29T06:53:16.276Z,9.443718
2022-12-29T06:54:16.269Z,9.443734
2022-12-29T06:55:16.324Z,9.443703
2022-12-29T06:56:16.260Z,9.443754
2022-12-29T06:57:16.253Z,9.443794
2022-12-29T06:58:16.302Z,9.443832
2022-12-29T06:59:16.244Z,9.443798
2022-12-29T07:00:22.317Z,9.443707
2022-12-29T07:01:18.339Z,9.443647
2022-12-29T07:02:17.359Z,9.443724
2022-12-29T07:03:16.233Z,9.443727
2022-12-29T07:04:16.246Z,9.443727
2022-12-29T07:05:16.274Z,9.443623
2022-12-29T07:06:16.244Z,9.443608
2022-12-29T07:07:17.193Z,9.443590
2022-12-29T07:08:16.180Z,9.443611
2022-12-29T07:09:16.216Z,9.443668
2022-12-29T07:10:16.212Z,9.443694
2022-12-29T07:11:16.152Z,9.443678
2022-12-29T07:12:16.165Z,9.443526
2022-12-29T07:13:16.236Z,9.443479
2022-12-29T07:14:16.137Z,9.443503
2022-12-29T07:15:16.154Z,9.443441
2022-12-29T07:16:16.178Z,9.443362
2022-12-29T07:17:16.117Z,9.443391
2022-12-29T07:18:16.159Z,9.443345
2022-12-29T07:19:16.104Z,9.443288
2022-12-29T07:20:16.106Z,9.443389
2022-12-29T07:21:16.248Z,9.443517
2022-12-29T07:22:16.080Z,9.443432
2022-12-29T07:23:16.075Z,9.443516
2022-12-29T07:24:16.116Z,9.443430
2022-12-29T07:25:16.086Z,9.443342
2022-12-29T07:26:16.133Z,9.443259
2022-12-29T07:27:16.052Z,9.443240
2022-12-29T07:28:16.042Z,9.443148
2022-12-29T07:29:16.038Z,9.443184
2022-12-29T07:30:16.029Z,9.443369
2022-12-29T07:31:16.026Z,9.443446
2022-12-29T07:32:16.067Z,9.443434
2022-12-29T07:33:16.136Z,9.443543
2022-12-29T07:34:16.038Z,9.443624
2022-12-29T07:35:16.012Z,9.443758
2022-12-29T07:36:16.013Z,9.443620
2022-12-29T07:37:16.011Z,9.443508
2022-12-29T07:38:15.980Z,9.443450
2022-12-29T07:39:15.965Z,9.443546
2022-12-29T07:40:16.023Z,9.443529
2022-12-29T07:41:15.972Z,9.443436
2022-12-29T07:42:15.963Z,9.443479
2022-12-29T07:43:16.102Z,9.443467
2022-12-29T07:44:15.945Z,9.443484
2022-12-29T07:45:15.941Z,9.443526
2022-12-29T07:46:55.133Z,9.443538
2022-12-29T07:47:17.913Z,9.443497
2022-12-29T07:48:15.908Z,9.443544
2022-12-29T07:49:15.942Z,9.443570
2022-12-29T07:50:15.911Z,9.443634
2022-12-29T07:51:15.884Z,9.443635
2022-12-29T07:52:15.916Z,9.443657
2022-12-29T07:53:15.879Z,9.443599
2022-12-29T07:54:15.853Z,9.443660
2022-12-29T07:55:16.875Z,9.443703
2022-12-29T07:56:15.867Z,9.443699
2022-12-29T07:57:15.839Z,9.443704
2022-12-29T07:58:15.863Z,9.443659
2022-12-29T07:59:15.830Z,9.443660
2022-12-29T08:00:15.832Z,9.443657
2022-12-29T08:01:15.838Z,9.443644
2022-12-29T08:02:15.947Z,9.443610
2022-12-29T08:03:15.851Z,9.443609
2022-12-29T08:04:15.816Z,9.443641
2022-12-29T08:05:15.837Z,9.443679
2022-12-29T08:06:15.812Z,9.443834
2022-12-29T08:07:15.796Z,9.443846
2022-12-29T08:08:15.815Z,9.443707
2022-12-29T08:09:22.037Z,9.443558
2022-12-29T08:10:17.760Z,9.443566
2022-12-29T08:11:15.791Z,9.443571
2022-12-29T08:12:15.748Z,9.443664
2022-12-29T08:13:15.766Z,9.443622
2022-12-29T08:14:15.736Z,9.443641
2022-12-29T08:15:15.740Z,9.443627
2022-12-29T08:16:15.731Z,9.443620
2022-12-29T08:17:15.759Z,9.443690
2022-12-29T08:18:16.254Z,9.443666
2022-12-29T08:19:15.739Z,9.443659
2022-12-29T08:20:15.721Z,9.443710
2022-12-29T08:21:15.706Z,9.443707
2022-12-29T08:22:15.740Z,9.443676
2022-12-29T08:23:15.681Z,9.443674
2022-12-29T08:24:15.717Z,9.443692
2022-12-29T08:25:15.673Z,9.443705
2022-12-29T08:26:15.722Z,9.443636
2022-12-29T08:27:20.465Z,9.443598
2022-12-29T08:28:17.684Z,9.443747
2022-12-29T08:29:15.686Z,9.443744
2022-12-29T08:30:15.699Z,9.443685
2022-12-29T08:31:15.827Z,9.443625
2022-12-29T08:32:15.620Z,9.443691
2022-12-29T08:33:15.648Z,9.443624
2022-12-29T08:34:15.638Z,9.443674
2022-12-29T08:35:15.602Z,9.443661
2022-12-29T08:36:15.629Z,9.443736
2022-12-29T08:37:15.590Z,9.443716
2022-12-29T08:38:15.600Z,9.443772
2022-12-29T08:39:15.566Z,9.443694
2022-12-29T08:40:15.615Z,9.443726
2022-12-29T08:41:15.585Z,9.443736
2022-12-29T08:42:15.578Z,9.443737
2022-12-29T08:43:18.540Z,9.443769
2022-12-29T08:44:16.543Z,9.443704
2022-12-29T08:45:15.541Z,9.443661
2022-12-29T08:46:15.629Z,9.443679
2022-12-29T08:47:15.546Z,9.443712
2022-12-29T08:48:15.526Z,9.443743
2022-12-29T08:49:15.523Z,9.443814
2022-12-29T08:50:15.533Z,9.443793
2022-12-29T08:51:17.295Z,9.443786
2022-12-29T08:52:15.568Z,9.443777
2022-12-29T08:53:15.489Z,9.443762
2022-12-29T08:54:15.492Z,9.443745
2022-12-29T08:55:15.468Z,9.443748
2022-12-29T08:56:15.473Z,9.443816
2022-12-29T08:57:15.492Z,9.443847
2022-12-29T08:58:15.540Z,9.443790
2022-12-29T08:59:15.468Z,9.443784
2022-12-29T09:00:15.525Z,9.443757
2022-12-29T09:01:15.492Z,9.443731
2022-12-29T09:02:18.777Z,9.443781
2022-12-29T09:03:37.472Z,9.443766
2022-12-29T09:04:17.792Z,9.443785
2022-12-29T09:05:16.444Z,9.443803
2022-12-29T09:06:15.405Z,9.443761
2022-12-29T09:07:15.509Z,9.443735
2022-12-29T09:08:16.941Z,9.443773
2022-12-29T09:09:15.407Z,9.443856
2022-12-29T09:10:15.411Z,9.443774
2022-12-29T09:11:15.390Z,9.443756
2022-12-29T09:12:15.395Z,9.443825
2022-12-29T09:13:15.383Z,9.443833
2022-12-29T09:14:15.359Z,9.443795
2022-12-29T09:15:15.373Z,9.443753
2022-12-29T09:16:15.418Z,9.443720
2022-12-29T09:17:15.347Z,9.443748
2022-12-29T09:18:20.561Z,9.443777
2022-12-29T09:19:17.374Z,9.443755
2022-12-29T09:20:15.301Z,9.443720
2022-12-29T09:21:15.303Z,9.443724
2022-12-29T09:22:15.367Z,9.443730
2022-12-29T09:23:15.289Z,9.443741
2022-12-29T09:24:15.309Z,9.443739
2022-12-29T09:25:15.309Z,9.443725
2022-12-29T09:26:15.314Z,9.443707
2022-12-29T09:27:15.278Z,9.443772
2022-12-29T09:28:15.269Z,9.443848
2022-12-29T09:29:15.286Z,9.443782
2022-12-29T09:30:15.280Z,9.443761
2022-12-29T09:31:15.335Z,9.443795
2022-12-29T09:32:18.507Z,9.443654
2022-12-29T09:33:16.229Z,9.443645
2022-12-29T09:34:15.229Z,9.443742
2022-12-29T09:35:15.265Z,9.443739
2022-12-29T09:36:15.213Z,9.443785
2022-12-29T09:37:15.224Z,9.443789
2022-12-29T09:38:15.203Z,9.443813
2022-12-29T09:39:15.188Z,9.443802
2022-12-29T09:40:15.208Z,9.443773
2022-12-29T09:41:15.216Z,9.443629
2022-12-29T09:42:15.166Z,9.443413
2022-12-29T09:43:15.170Z,9.443647
2022-12-29T09:44:15.194Z,9.443737
2022-12-29T09:45:15.202Z,9.443773
2022-12-29T09:46:15.360Z,9.443859
2022-12-29T09:47:15.201Z,9.443891
2022-12-29T09:48:15.156Z,9.443869
2022-12-29T09:49:15.254Z,9.443713
2022-12-29T09:50:15.177Z,9.443776
2022-12-29T09:51:15.108Z,9.443698
2022-12-29T09:52:15.148Z,9.443690
2022-12-29T09:53:15.124Z,9.443673
2022-12-29T09:54:15.131Z,9.443659
2022-12-29T09:55:15.084Z,9.443645
2022-12-29T09:56:15.060Z,9.443666
2022-12-29T09:57:16.067Z,9.443672
2022-12-29T09:58:15.092Z,9.443617
2022-12-29T09:59:15.085Z,9.443627
2022-12-29T10:00:15.076Z,9.443605
2022-12-29T10:01:15.061Z,9.443649
2022-12-29T10:02:15.249Z,9.443675
2022-12-29T10:03:15.241Z,9.443711
2022-12-29T10:04:15.051Z,9.443692
2022-12-29T10:05:15.060Z,9.443690
2022-12-29T10:06:15.096Z,9.443675
2022-12-29T10:07:30.973Z,9.443693
2022-12-29T10:08:17.760Z,9.443644
2022-12-29T10:09:16.001Z,9.443593
2022-12-29T10:10:15.014Z,9.443647
2022-12-29T10:11:15.016Z,9.443707
2022-12-29T10:12:14.984Z,9.443727
2022-12-29T10:13:15.022Z,9.443737
2022-12-29T10:14:16.310Z,9.443739
2022-12-29T10:15:15.963Z,9.443724
2022-12-29T10:16:15.095Z,9.443713
2022-12-29T10:17:14.949Z,9.443695
2022-12-29T10:18:14.954Z,9.443705
2022-12-29T10:19:14.960Z,9.443761
2022-12-29T10:20:14.931Z,9.443801
2022-12-29T10:21:14.936Z,9.443779
2022-12-29T10:22:14.924Z,9.443794
2022-12-29T10:23:15.009Z,9.443763
2022-12-29T10:24:14.944Z,9.443772
2022-12-29T10:25:14.901Z,9.443802
2022-12-29T10:26:14.932Z,9.443842
2022-12-29T10:27:14.919Z,9.443812
2022-12-29T10:28:14.909Z,9.443818
2022-12-29T10:29:14.914Z,9.443822
2022-12-29T10:30:14.897Z,9.443820
2022-12-29T10:31:14.951Z,9.443794
2022-12-29T10:32:14.876Z,9.443757
2022-12-29T10:33:14.852Z,9.443769
2022-12-29T10:34:14.896Z,9.443875
2022-12-29T10:35:14.927Z,9.443702
2022-12-29T10:36:14.885Z,9.443731
2022-12-29T10:37:14.882Z,9.443725
2022-12-29T10:38:14.853Z,9.443723
2022-12-29T10:39:14.827Z,9.443803
2022-12-29T10:40:14.818Z,9.443769
2022-12-29T10:41:14.815Z,9.443695
2022-12-29T10:42:14.902Z,9.443561
2022-12-29T10:43:20.981Z,9.443531
2022-12-29T10:44:16.823Z,9.443564
2022-12-29T10:45:14.825Z,9.443674
2022-12-29T10:46:14.912Z,9.443785
2022-12-29T10:47:14.797Z,9.443863
2022-12-29T10:48:14.792Z,9.443768
2022-12-29T10:49:21.047Z,9.443715
2022-12-29T10:50:16.829Z,9.443654
2022-12-29T10:51:14.775Z,9.443575
2022-12-29T10:52:14.745Z,9.443522
2022-12-29T10:53:14.741Z,9.443753
2022-12-29T10:54:14.791Z,9.443649
2022-12-29T10:55:15.232Z,9.443709
2022-12-29T10:56:14.727Z,9.443747
2022-12-29T10:57:14.753Z,9.443785
2022-12-29T10:58:14.731Z,9.443762
2022-12-29T10:59:14.694Z,9.443715
2022-12-29T11:00:15.306Z,9.443702
2022-12-29T11:01:14.745Z,9.443801
2022-12-29T11:02:14.792Z,9.443890
2022-12-29T11:03:14.745Z,9.443834
2022-12-29T11:04:14.665Z,9.443793
2022-12-29T11:05:14.700Z,9.443773
2022-12-29T11:06:14.727Z,9.443791
2022-12-29T11:07:16.350Z,9.443797
2022-12-29T11:08:15.638Z,9.443883
2022-12-29T11:09:14.656Z,9.443874
2022-12-29T11:10:14.640Z,9.443893
2022-12-29T11:11:14.640Z,9.443847
2022-12-29T11:12:14.701Z,9.443860
2022-12-29T11:13:14.613Z,9.443845
2022-12-29T11:14:14.632Z,9.443807
2022-12-29T11:15:14.675Z,9.443752
2022-12-29T11:16:14.705Z,9.443811
2022-12-29T11:17:14.587Z,9.443855
2022-12-29T11:18:14.612Z,9.443780
2022-12-29T11:19:14.656Z,9.443785
2022-12-29T11:20:14.566Z,9.443710
2022-12-29T11:21:14.584Z,9.443742
2022-12-29T11:22:14.656Z,9.443587
2022-12-29T11:23:14.966Z,9.443622
2022-12-29T11:24:14.559Z,9.443655
2022-12-29T11:25:14.568Z,9.443754
2022-12-29T11:26:14.527Z,9.443722
2022-12-29T11:27:14.558Z,9.443750
2022-12-29T11:28:14.543Z,9.443769
2022-12-29T11:29:14.635Z,9.443775
2022-12-29T11:30:14.514Z,9.443770
2022-12-29T11:31:14.619Z,9.443782
2022-12-29T11:32:14.544Z,9.443833
2022-12-29T11:33:14.498Z,9.443786
2022-12-29T11:34:14.584Z,9.443748
2022-12-29T11:35:14.475Z,9.443686
2022-12-29T11:36:14.485Z,9.443521
2022-12-29T11:37:14.747Z,9.443572
2022-12-29T11:38:14.457Z,9.443767
2022-12-29T11:39:14.477Z,9.443754
2022-12-29T11:40:14.487Z,9.443773
2022-12-29T11:41:14.463Z,9.443697
2022-12-29T11:42:14.438Z,9.443846
2022-12-29T11:43:14.432Z,9.443721
2022-12-29T11:44:14.538Z,9.443776